Terminal Aerodrome Forecast
Issued by NWS

Home | Current Version | Previous Version | Text Only | Print | Product List | Glossary On
Versions: 1 2 3 4 5 6 7 8 9 10 11 12 13 14 15 16 17 18 19 20 21 22 23 24 25 26
076
FTUS46 KMTR 151125
TAFSJC
TAF
KSJC 151125Z 1512/1612 VRB04KT P6SM FEW010 SCT250
      TEMPO 1512/1516 BKN010
     FM151700 VRB04KT P6SM FEW015 BKN250
     FM151900 32012KT P6SM FEW020 BKN200
     FM160400 32005KT P6SM SCT030 OVC150
     FM160900 34006KT P6SM BKN025 OVC050=

USA.gov is the U.S. government's official web portal to all federal, state and local government web resources and services.